Time;durP1;ratioP1;P1;durP2;ratioP2;P2;SDS_P1;SDS_P2;PMS_P1;PMS_P2;Temp;Humidity;BMP_temperature;BMP_pressure;BME280_temperature;BME280_humidity;BME280_pressure;Samples;Min_cycle;Max_cycle;Signal;HPM_P1;HPM_P2
2022/02/06 00:00:20;;;;;;;;;;;22.20;29.10;;;;;;5088203;28;19977;-68
2022/02/06 00:02:49;;;;;;;;;;;22.10;29.10;;;;;;5085937;28;20281;-68
2022/02/06 00:05:16;;;;;;;;;;;22.10;29.10;;;;;;5089088;28;19931;-68
2022/02/06 00:07:47;;;;;;;;;;;22.10;29.10;;;;;;5085617;28;19924;-68
2022/02/06 00:10:14;;;;;;;;;;;22.10;29.10;;;;;;5088834;28;20015;-68
2022/02/06 00:12:41;;;;;;;;;;;22.10;29.20;;;;;;5085479;28;19971;-68
2022/02/06 00:15:08;;;;;;;;;;;22.10;29.10;;;;;;5087875;28;19924;-68
2022/02/06 00:17:35;;;;;;;;;;;22.10;29.20;;;;;;5085707;28;20322;-68
2022/02/06 00:20:03;;;;;;;;;;;22.10;29.20;;;;;;5088183;28;20001;-68
2022/02/06 00:22:38;;;;;;;;;;;22.10;29.20;;;;;;5085959;28;19985;-68
2022/02/06 00:30:46;;;;;;;;;;;22.00;29.20;;;;;;5087883;28;19924;-68
2022/02/06 00:33:24;;;;;;;;;;;22.10;29.20;;;;;;5086189;28;20014;-68
2022/02/06 00:42:05;;;;;;;;;;;22.00;29.20;;;;;;5089071;28;20114;-68
2022/02/06 00:44:31;;;;;;;;;;;22.00;29.20;;;;;;5091861;28;19983;-68
2022/02/06 00:47:02;;;;;;;;;;;22.00;29.20;;;;;;5090257;28;20407;-68
2022/02/06 00:49:31;;;;;;;;;;;22.00;29.20;;;;;;5092118;28;19974;-68
2022/02/06 00:52:14;;;;;;;;;;;22.00;29.20;;;;;;5089603;28;20128;-68
2022/02/06 00:54:41;;;;;;;;;;;22.00;29.20;;;;;;5092728;28;20108;-68
2022/02/06 00:57:08;;;;;;;;;;;22.00;29.20;;;;;;5089454;28;20012;-68
2022/02/06 00:59:35;;;;;;;;;;;22.00;29.20;;;;;;5092467;28;19928;-68
2022/02/06 01:02:02;;;;;;;;;;;22.00;29.20;;;;;;5088550;28;19982;-68
2022/02/06 01:04:34;;;;;;;;;;;22.00;29.20;;;;;;5092012;28;20384;-68
2022/02/06 01:07:02;;;;;;;;;;;22.00;29.20;;;;;;5089592;28;20038;-67
2022/02/06 01:09:29;;;;;;;;;;;22.00;29.20;;;;;;5092175;28;19977;-67
2022/02/06 01:11:57;;;;;;;;;;;22.00;29.30;;;;;;5089273;28;20315;-67
2022/02/06 01:14:52;;;;;;;;;;;22.00;29.30;;;;;;5091853;28;19924;-68
2022/02/06 01:20:07;;;;;;;;;;;21.90;29.20;;;;;;5091653;28;19982;-67
2022/02/06 01:22:36;;;;;;;;;;;22.00;29.30;;;;;;5089430;28;19924;-67
2022/02/06 01:25:10;;;;;;;;;;;21.90;29.30;;;;;;5091417;28;20413;-67
2022/02/06 01:27:44;;;;;;;;;;;21.90;29.70;;;;;;5070765;28;19955;-67
2022/02/06 01:30:16;;;;;;;;;;;21.90;29.30;;;;;;5092010;28;19930;-67
2022/02/06 01:32:51;;;;;;;;;;;22.00;29.30;;;;;;5089312;28;19975;-67
2022/02/06 01:35:27;;;;;;;;;;;22.00;29.30;;;;;;5091213;28;19946;-68
2022/02/06 01:38:10;;;;;;;;;;;21.90;29.30;;;;;;5088264;28;19924;-68
2022/02/06 01:40:52;;;;;;;;;;;21.90;29.30;;;;;;5091149;28;19977;-69
2022/02/06 01:57:09;;;;;;;;;;;21.90;29.30;;;;;;5088587;28;20019;-68
2022/02/06 02:03:38;;;;;;;;;;;21.90;29.30;;;;;;5088475;28;19930;-68
2022/02/06 02:06:42;;;;;;;;;;;22.00;29.30;;;;;;5089857;28;19993;-68
2022/02/06 02:10:06;;;;;;;;;;;21.90;29.30;;;;;;5089856;28;20505;-68
2022/02/06 02:12:46;;;;;;;;;;;21.90;29.30;;;;;;5087891;28;20361;-68
2022/02/06 02:21:13;;;;;;;;;;;21.90;29.30;;;;;;5075131;28;19936;-68
2022/02/06 02:24:16;;;;;;;;;;;21.80;29.30;;;;;;5089127;28;19959;-68
2022/02/06 02:26:52;;;;;;;;;;;21.90;29.30;;;;;;5088792;28;20468;-68
2022/02/06 02:29:55;;;;;;;;;;;21.90;29.30;;;;;;5089708;28;20352;-68
2022/02/06 02:46:40;;;;;;;;;;;21.80;29.30;;;;;;5088395;28;20421;-68
2022/02/06 02:49:13;;;;;;;;;;;21.80;29.30;;;;;;5089699;28;19975;-68
2022/02/06 02:51:45;;;;;;;;;;;21.80;29.30;;;;;;5087424;28;19975;-68
2022/02/06 02:54:17;;;;;;;;;;;21.80;29.30;;;;;;5089644;28;19974;-68
2022/02/06 02:56:51;;;;;;;;;;;21.80;29.30;;;;;;5070423;28;19971;-68
2022/02/06 02:59:30;;;;;;;;;;;21.80;29.30;;;;;;5089117;28;20309;-68
2022/02/06 03:02:00;;;;;;;;;;;21.80;29.30;;;;;;5086683;28;20194;-68
2022/02/06 03:04:27;;;;;;;;;;;21.80;29.30;;;;;;5088950;28;20024;-68
2022/02/06 03:06:54;;;;;;;;;;;21.80;29.30;;;;;;5087325;28;20009;-67
2022/02/06 03:09:23;;;;;;;;;;;21.80;29.30;;;;;;5089257;28;20081;-67
2022/02/06 03:11:50;;;;;;;;;;;21.80;29.30;;;;;;5087198;28;19924;-68
2022/02/06 03:14:23;;;;;;;;;;;21.80;29.30;;;;;;5088009;28;19928;-68
2022/02/06 03:17:01;;;;;;;;;;;21.80;29.30;;;;;;5086122;28;20152;-68
2022/02/06 03:19:37;;;;;;;;;;;21.80;29.30;;;;;;5089650;28;19928;-68
2022/02/06 03:22:04;;;;;;;;;;;21.80;29.30;;;;;;5086411;28;20011;-68
2022/02/06 03:24:40;;;;;;;;;;;21.80;29.30;;;;;;5089225;28;19924;-67
2022/02/06 03:27:07;;;;;;;;;;;21.80;29.30;;;;;;5085956;28;19970;-69
2022/02/06 03:29:34;;;;;;;;;;;21.80;29.30;;;;;;5089101;28;19924;-68
2022/02/06 03:32:01;;;;;;;;;;;21.80;29.30;;;;;;5086450;28;20022;-68
2022/02/06 03:34:28;;;;;;;;;;;21.80;29.30;;;;;;5089096;28;19928;-68
2022/02/06 03:36:54;;;;;;;;;;;21.80;29.30;;;;;;5086310;28;19924;-68
2022/02/06 03:39:42;;;;;;;;;;;21.80;29.30;;;;;;5088282;28;19975;-67
2022/02/06 03:42:14;;;;;;;;;;;21.80;29.30;;;;;;5068449;28;19924;-68
2022/02/06 03:44:47;;;;;;;;;;;21.80;29.30;;;;;;5089027;28;19950;-68
2022/02/06 03:47:19;;;;;;;;;;;21.80;29.30;;;;;;5085463;28;20390;-68
2022/02/06 03:49:55;;;;;;;;;;;21.80;29.30;;;;;;5088464;28;19924;-68
2022/02/06 03:52:28;;;;;;;;;;;21.80;29.30;;;;;;5086203;28;19924;-68
2022/02/06 03:54:55;;;;;;;;;;;21.80;29.30;;;;;;5089090;28;20444;-68
2022/02/06 03:57:22;;;;;;;;;;;21.80;29.30;;;;;;5086373;28;19964;-68
2022/02/06 03:59:50;;;;;;;;;;;21.80;29.30;;;;;;5088900;28;19996;-68
2022/02/06 04:02:17;;;;;;;;;;;21.80;29.30;;;;;;5085974;28;19966;-68
2022/02/06 04:04:44;;;;;;;;;;;21.80;29.30;;;;;;5088990;28;19924;-68
2022/02/06 04:07:13;;;;;;;;;;;21.80;29.30;;;;;;5084132;28;20019;-67
2022/02/06 04:09:47;;;;;;;;;;;21.80;29.30;;;;;;5088809;28;19980;-67
2022/02/06 04:12:16;;;;;;;;;;;21.70;29.30;;;;;;5086127;28;19990;-69
2022/02/06 04:14:54;;;;;;;;;;;21.80;29.30;;;;;;5088971;28;19978;-68
2022/02/06 04:17:26;;;;;;;;;;;21.70;29.30;;;;;;5085268;28;20389;-68
2022/02/06 04:19:53;;;;;;;;;;;21.70;29.30;;;;;;5088964;28;20321;-69
2022/02/06 04:22:21;;;;;;;;;;;21.70;29.30;;;;;;5086048;28;20057;-68
2022/02/06 04:24:48;;;;;;;;;;;21.70;29.30;;;;;;5070840;28;20314;-68
2022/02/06 04:27:16;;;;;;;;;;;21.70;29.30;;;;;;5085460;28;20007;-68
2022/02/06 04:29:43;;;;;;;;;;;21.70;29.30;;;;;;5088270;28;19968;-68
2022/02/06 04:32:10;;;;;;;;;;;21.70;29.30;;;;;;5085477;28;20010;-68
2022/02/06 04:34:37;;;;;;;;;;;21.70;29.30;;;;;;5088458;28;19960;-68
2022/02/06 04:37:18;;;;;;;;;;;21.70;29.30;;;;;;5067952;28;20011;-68
2022/02/06 04:40:11;;;;;;;;;;;21.70;29.30;;;;;;5087968;28;19924;-68
2022/02/06 04:48:36;;;;;;;;;;;21.70;29.30;;;;;;5085413;28;20281;-68
2022/02/06 05:14:19;;;;;;;;;;;21.70;29.30;;;;;;5071909;28;19971;-68
2022/02/06 05:16:49;;;;;;;;;;;21.70;29.30;;;;;;5086057;28;20373;-68
2022/02/06 05:20:00;;;;;;;;;;;21.60;29.30;;;;;;5087799;28;19975;-68
2022/02/06 05:22:26;;;;;;;;;;;21.70;29.30;;;;;;5085268;28;19973;-68
2022/02/06 05:25:21;;;;;;;;;;;21.70;29.30;;;;;;5087983;28;19977;-68
2022/02/06 05:28:01;;;;;;;;;;;21.70;29.30;;;;;;5085037;28;19924;-68
2022/02/06 05:30:38;;;;;;;;;;;21.70;29.30;;;;;;5091441;28;19924;-68
2022/02/06 05:33:05;;;;;;;;;;;21.70;29.30;;;;;;5088793;28;19979;-68
2022/02/06 05:35:35;;;;;;;;;;;21.70;29.30;;;;;;5090971;28;19986;-68
2022/02/06 05:41:23;;;;;;;;;;;21.70;29.30;;;;;;5089616;28;19919;-68
2022/02/06 05:43:51;;;;;;;;;;;21.70;29.30;;;;;;5089975;28;20393;-68
2022/02/06 05:46:19;;;;;;;;;;;21.70;29.30;;;;;;5089320;28;19971;-68
2022/02/06 05:48:46;;;;;;;;;;;21.70;29.30;;;;;;5089889;28;20302;-68
2022/02/06 05:51:13;;;;;;;;;;;21.70;29.30;;;;;;5071733;28;20014;-68
2022/02/06 05:57:02;;;;;;;;;;;21.60;29.30;;;;;;5088012;28;19923;-68
2022/02/06 05:59:29;;;;;;;;;;;21.60;29.30;;;;;;5072972;28;20447;-68
2022/02/06 06:01:56;;;;;;;;;;;21.60;29.30;;;;;;5088610;28;20421;-68
2022/02/06 06:04:24;;;;;;;;;;;21.60;29.30;;;;;;5091519;28;19924;-68
2022/02/06 06:06:50;;;;;;;;;;;21.60;29.30;;;;;;5088401;28;20015;-67
2022/02/06 06:09:18;;;;;;;;;;;21.60;29.20;;;;;;5090608;28;19964;-68
2022/02/06 06:11:44;;;;;;;;;;;21.60;29.00;;;;;;5070396;28;19965;-68
2022/02/06 06:14:11;;;;;;;;;;;21.60;28.90;;;;;;5089534;28;19977;-68
2022/02/06 06:16:38;;;;;;;;;;;21.60;28.90;;;;;;5087978;28;19928;-68
2022/02/06 06:19:06;;;;;;;;;;;21.60;29.00;;;;;;5090099;28;20019;-68
2022/02/06 06:21:38;;;;;;;;;;;21.60;29.00;;;;;;5088928;28;19928;-68
2022/02/06 06:24:05;;;;;;;;;;;21.50;28.90;;;;;;5072826;28;19924;-68
2022/02/06 06:26:37;;;;;;;;;;;21.60;28.80;;;;;;5088616;28;19982;-68
2022/02/06 06:29:04;;;;;;;;;;;21.60;28.80;;;;;;5090241;28;19928;-68
2022/02/06 06:31:31;;;;;;;;;;;21.60;28.70;;;;;;5088706;28;20215;-68
2022/02/06 06:33:58;;;;;;;;;;;21.60;28.70;;;;;;5089648;28;19924;-68
2022/02/06 06:36:26;;;;;;;;;;;21.60;28.60;;;;;;5088959;28;19946;-68
2022/02/06 06:42:08;;;;;;;;;;;21.70;28.50;;;;;;5088142;28;20329;-68
2022/02/06 06:44:35;;;;;;;;;;;21.80;28.40;;;;;;5090432;28;19959;-68
2022/02/06 06:47:03;;;;;;;;;;;21.80;28.30;;;;;;5087833;28;19927;-68
2022/02/06 06:49:30;;;;;;;;;;;21.90;28.30;;;;;;5089826;28;19993;-68
2022/02/06 06:51:57;;;;;;;;;;;21.90;28.20;;;;;;5087573;28;19963;-68
2022/02/06 06:54:25;;;;;;;;;;;21.90;28.10;;;;;;5089936;28;20008;-68
2022/02/06 06:57:00;;;;;;;;;;;22.00;28.00;;;;;;5087671;28;19979;-68
2022/02/06 06:59:47;;;;;;;;;;;22.00;28.00;;;;;;5089594;28;20015;-68
2022/02/06 07:02:17;;;;;;;;;;;22.10;28.00;;;;;;5086090;28;19924;-68
2022/02/06 07:04:45;;;;;;;;;;;22.10;28.00;;;;;;5089790;28;20137;-68
2022/02/06 07:07:13;;;;;;;;;;;22.20;28.30;;;;;;5086511;28;19946;-68
2022/02/06 07:09:40;;;;;;;;;;;22.20;27.80;;;;;;5089934;28;19966;-68
2022/02/06 07:12:09;;;;;;;;;;;22.30;27.80;;;;;;5086944;28;20331;-68
2022/02/06 07:14:36;;;;;;;;;;;22.40;27.70;;;;;;5089736;28;19924;-68
2022/02/06 07:17:03;;;;;;;;;;;22.40;27.70;;;;;;5086171;28;19924;-68
2022/02/06 07:19:35;;;;;;;;;;;22.40;27.60;;;;;;5089690;28;20019;-68
2022/02/06 07:22:03;;;;;;;;;;;22.50;27.60;;;;;;5086981;28;19936;-68
2022/02/06 07:24:46;;;;;;;;;;;22.60;27.50;;;;;;5089513;28;20089;-68
2022/02/06 07:27:25;;;;;;;;;;;22.60;27.40;;;;;;5086173;28;19959;-68
2022/02/06 07:29:52;;;;;;;;;;;22.70;27.40;;;;;;5089433;28;20438;-68
2022/02/06 07:32:19;;;;;;;;;;;22.70;27.30;;;;;;5087235;28;20014;-68
2022/02/06 07:34:46;;;;;;;;;;;22.80;27.20;;;;;;5088909;28;19963;-71
2022/02/06 07:37:13;;;;;;;;;;;22.80;27.20;;;;;;5086918;28;19924;-68
2022/02/06 07:39:40;;;;;;;;;;;22.80;27.10;;;;;;5088919;28;19959;-68
2022/02/06 07:42:09;;;;;;;;;;;22.90;27.00;;;;;;5085962;28;20335;-68
2022/02/06 07:44:37;;;;;;;;;;;22.90;26.90;;;;;;5089447;28;19924;-69
2022/02/06 07:47:15;;;;;;;;;;;23.00;26.90;;;;;;5086329;28;20506;-68
2022/02/06 07:49:45;;;;;;;;;;;23.00;26.80;;;;;;5088570;28;20343;-68
2022/02/06 07:52:12;;;;;;;;;;;23.10;26.70;;;;;;5085794;28;20397;-68
2022/02/06 07:54:39;;;;;;;;;;;23.20;26.70;;;;;;5089059;28;19947;-68
2022/02/06 07:57:06;;;;;;;;;;;23.20;26.60;;;;;;5085799;28;20000;-68
2022/02/06 07:59:34;;;;;;;;;;;23.30;26.50;;;;;;5088389;28;20007;-68
2022/02/06 08:02:02;;;;;;;;;;;23.30;26.50;;;;;;5086938;28;20011;-68
2022/02/06 08:04:29;;;;;;;;;;;23.40;26.40;;;;;;5088493;28;19928;-68
2022/02/06 08:06:56;;;;;;;;;;;23.40;26.30;;;;;;5085977;28;20019;-68
2022/02/06 08:10:00;;;;;;;;;;;23.50;26.30;;;;;;5087578;28;20810;-68
2022/02/06 08:12:29;;;;;;;;;;;23.50;26.30;;;;;;5086431;28;20015;-68
2022/02/06 08:14:59;;;;;;;;;;;23.50;26.20;;;;;;5070872;28;19924;-68
2022/02/06 08:17:31;;;;;;;;;;;23.60;26.20;;;;;;5085420;28;20477;-68
2022/02/06 08:19:59;;;;;;;;;;;23.60;26.10;;;;;;5088532;28;20429;-68
2022/02/06 08:22:26;;;;;;;;;;;23.70;26.10;;;;;;5086139;28;19928;-68
2022/02/06 08:24:53;;;;;;;;;;;23.70;26.00;;;;;;5088814;28;20026;-68
2022/02/06 08:27:22;;;;;;;;;;;23.80;26.00;;;;;;5085647;28;20046;-68
2022/02/06 08:29:49;;;;;;;;;;;23.80;25.80;;;;;;5088301;28;20034;-68
2022/02/06 08:32:17;;;;;;;;;;;23.90;25.80;;;;;;5085746;28;20022;-68
2022/02/06 08:34:46;;;;;;;;;;;23.90;25.70;;;;;;5088490;28;19951;-68
2022/02/06 08:37:13;;;;;;;;;;;24.00;25.60;;;;;;5086389;28;19931;-68
2022/02/06 08:39:42;;;;;;;;;;;24.00;25.60;;;;;;5088597;28;19924;-68
2022/02/06 08:42:09;;;;;;;;;;;24.00;25.50;;;;;;5086001;28;19932;-68
2022/02/06 08:44:37;;;;;;;;;;;24.10;25.50;;;;;;5089057;28;19989;-68
2022/02/06 08:47:08;;;;;;;;;;;24.10;25.40;;;;;;5085601;28;20015;-68
2022/02/06 08:49:36;;;;;;;;;;;24.10;25.40;;;;;;5088816;28;19968;-68
2022/02/06 08:52:04;;;;;;;;;;;24.10;25.40;;;;;;5084961;28;19967;-68
2022/02/06 08:54:40;;;;;;;;;;;24.10;25.30;;;;;;5088304;28;19928;-68
2022/02/06 08:57:22;;;;;;;;;;;24.10;25.40;;;;;;5085596;28;19930;-69
2022/02/06 08:59:49;;;;;;;;;;;24.10;25.30;;;;;;5070470;28;20053;-68
2022/02/06 09:02:16;;;;;;;;;;;24.10;25.40;;;;;;5087634;28;20200;-68
2022/02/06 09:04:47;;;;;;;;;;;24.10;25.40;;;;;;5091801;28;19924;-68
2022/02/06 09:07:14;;;;;;;;;;;24.20;25.40;;;;;;5089244;28;19969;-68
2022/02/06 09:09:48;;;;;;;;;;;24.20;25.40;;;;;;5091990;28;20356;-68
2022/02/06 09:12:15;;;;;;;;;;;24.20;25.30;;;;;;5089124;28;19932;-68
2022/02/06 09:14:42;;;;;;;;;;;24.20;25.30;;;;;;5092049;28;20397;-68
2022/02/06 09:17:09;;;;;;;;;;;24.20;25.30;;;;;;5088994;28;19924;-68
2022/02/06 09:19:39;;;;;;;;;;;24.30;25.30;;;;;;5091748;28;19979;-68
2022/02/06 09:22:08;;;;;;;;;;;24.30;25.30;;;;;;5088906;28;20464;-68
2022/02/06 09:24:35;;;;;;;;;;;24.30;25.20;;;;;;5092599;28;19925;-68
2022/02/06 09:27:03;;;;;;;;;;;24.40;25.20;;;;;;5088879;28;20273;-68
2022/02/06 09:29:32;;;;;;;;;;;24.40;25.20;;;;;;5091804;28;19924;-68
2022/02/06 09:37:23;;;;;;;;;;;24.40;25.10;;;;;;5091076;28;19924;-68
2022/02/06 09:39:50;;;;;;;;;;;24.50;25.10;;;;;;5091310;28;19924;-68
2022/02/06 09:42:18;;;;;;;;;;;24.50;25.10;;;;;;5088477;28;20296;-68
2022/02/06 09:44:47;;;;;;;;;;;24.50;25.10;;;;;;5091481;28;19959;-68
2022/02/06 09:47:27;;;;;;;;;;;24.50;25.00;;;;;;5088857;28;20045;-68
2022/02/06 09:49:55;;;;;;;;;;;24.50;25.00;;;;;;5073511;28;19924;-68
2022/02/06 09:52:27;;;;;;;;;;;24.50;25.00;;;;;;5088375;28;19924;-68
2022/02/06 09:55:04;;;;;;;;;;;24.50;25.00;;;;;;5091570;28;19971;-68
2022/02/06 09:57:39;;;;;;;;;;;24.60;25.00;;;;;;5088484;28;20535;-68
2022/02/06 10:00:08;;;;;;;;;;;24.60;25.10;;;;;;5091362;28;19924;-68
2022/02/06 10:02:37;;;;;;;;;;;24.60;25.00;;;;;;5088494;28;19925;-68
2022/02/06 10:05:05;;;;;;;;;;;24.60;25.00;;;;;;5091427;28;19971;-68
2022/02/06 10:07:40;;;;;;;;;;;24.70;25.00;;;;;;5088482;28;19971;-67
2022/02/06 10:10:08;;;;;;;;;;;24.70;25.00;;;;;;5091161;28;19987;-68
2022/02/06 10:12:36;;;;;;;;;;;24.70;25.00;;;;;;5088567;28;20023;-68
2022/02/06 10:15:05;;;;;;;;;;;24.70;25.00;;;;;;5090214;28;20536;-68
2022/02/06 10:17:34;;;;;;;;;;;24.70;25.00;;;;;;5088193;28;19932;-68
2022/02/06 10:20:02;;;;;;;;;;;24.70;25.00;;;;;;5090801;28;19971;-68
2022/02/06 10:22:41;;;;;;;;;;;24.70;25.00;;;;;;5088169;28;20204;-68
2022/02/06 10:25:09;;;;;;;;;;;24.70;25.00;;;;;;5091038;28;19977;-68
2022/02/06 10:27:48;;;;;;;;;;;24.70;25.00;;;;;;5088144;28;19964;-68
2022/02/06 10:30:36;;;;;;;;;;;24.70;25.00;;;;;;5090568;28;19967;-69
2022/02/06 10:33:06;;;;;;;;;;;24.70;25.00;;;;;;5087858;28;19931;-68
2022/02/06 10:35:33;;;;;;;;;;;24.80;25.00;;;;;;5090723;28;20144;-68
2022/02/06 10:41:24;;;;;;;;;;;24.80;25.10;;;;;;5088369;28;19946;-69
2022/02/06 10:43:57;;;;;;;;;;;24.90;25.20;;;;;;5089010;28;19993;-68
2022/02/06 10:46:25;;;;;;;;;;;24.90;25.20;;;;;;5088149;28;20296;-68
2022/02/06 10:48:53;;;;;;;;;;;24.90;25.10;;;;;;5089670;28;19981;-68
2022/02/06 10:51:40;;;;;;;;;;;24.90;25.10;;;;;;5087641;28;19935;-68
2022/02/06 10:54:12;;;;;;;;;;;25.00;25.10;;;;;;5089375;28;19982;-68
2022/02/06 10:56:59;;;;;;;;;;;25.00;25.10;;;;;;5087800;28;19963;-68
2022/02/06 10:59:27;;;;;;;;;;;25.10;25.10;;;;;;5089725;28;20435;-68
2022/02/06 11:01:54;;;;;;;;;;;25.10;25.10;;;;;;5087353;28;19971;-68
2022/02/06 11:04:29;;;;;;;;;;;25.10;25.10;;;;;;5089293;28;19924;-69
2022/02/06 11:07:15;;;;;;;;;;;25.10;25.10;;;;;;5087627;28;19924;-68
2022/02/06 11:09:42;;;;;;;;;;;25.20;25.10;;;;;;5090129;28;19924;-68
2022/02/06 11:12:11;;;;;;;;;;;25.20;25.10;;;;;;5086482;28;19967;-68
2022/02/06 11:14:45;;;;;;;;;;;25.20;25.10;;;;;;5089850;28;20339;-68
2022/02/06 11:17:19;;;;;;;;;;;25.20;25.10;;;;;;5086571;28;20001;-68
2022/02/06 11:20:00;;;;;;;;;;;25.20;25.10;;;;;;5089651;28;19931;-68
2022/02/06 11:22:27;;;;;;;;;;;25.20;25.20;;;;;;5086917;28;19974;-68
2022/02/06 11:24:54;;;;;;;;;;;25.20;25.10;;;;;;5088683;28;20495;-68
2022/02/06 11:27:22;;;;;;;;;;;25.20;25.10;;;;;;5085901;28;19978;-68
2022/02/06 11:29:49;;;;;;;;;;;25.20;25.20;;;;;;5090159;28;19971;-68
2022/02/06 11:32:16;;;;;;;;;;;25.20;25.20;;;;;;5086969;28;19999;-68
2022/02/06 11:34:43;;;;;;;;;;;25.20;25.20;;;;;;5089518;28;19932;-68
2022/02/06 11:46:11;;;;;;;;;;;25.10;25.30;;;;;;5087741;28;19924;-68
2022/02/06 11:48:38;;;;;;;;;;;25.10;25.40;;;;;;5087924;28;19963;-68
2022/02/06 11:51:06;;;;;;;;;;;25.10;25.40;;;;;;5087777;28;19985;-68
2022/02/06 11:53:38;;;;;;;;;;;25.10;25.40;;;;;;5087034;28;20003;-69
2022/02/06 11:56:23;;;;;;;;;;;25.10;25.50;;;;;;5087700;28;19928;-68
2022/02/06 11:58:50;;;;;;;;;;;25.10;25.40;;;;;;5087600;28;20457;-68
2022/02/06 12:01:19;;;;;;;;;;;25.20;25.50;;;;;;5086872;28;20288;-68
2022/02/06 12:04:00;;;;;;;;;;;25.20;25.50;;;;;;5087110;28;19977;-68
2022/02/06 12:06:47;;;;;;;;;;;25.20;25.50;;;;;;5087854;28;20300;-67
2022/02/06 12:09:17;;;;;;;;;;;25.20;25.50;;;;;;5084163;28;20011;-68
2022/02/06 12:12:03;;;;;;;;;;;25.20;25.50;;;;;;5086867;28;20445;-68
2022/02/06 12:14:36;;;;;;;;;;;25.20;25.50;;;;;;5101579;28;19992;-68
2022/02/06 12:17:15;;;;;;;;;;;25.20;25.50;;;;;;5085539;28;20002;-68
2022/02/06 12:19:42;;;;;;;;;;;25.20;25.50;;;;;;5088634;28;20026;-68
2022/02/06 12:22:29;;;;;;;;;;;25.20;25.60;;;;;;5086372;28;20375;-68
2022/02/06 12:25:16;;;;;;;;;;;25.30;25.60;;;;;;5089053;28;20441;-68
2022/02/06 12:27:43;;;;;;;;;;;25.20;25.60;;;;;;5085396;28;19982;-69
2022/02/06 12:30:18;;;;;;;;;;;25.20;25.60;;;;;;5088139;28;19967;-68
2022/02/06 12:32:45;;;;;;;;;;;25.20;25.70;;;;;;5086332;28;20449;-69
2022/02/06 12:41:31;;;;;;;;;;;25.10;25.70;;;;;;5090963;28;19978;-68
2022/02/06 12:44:04;;;;;;;;;;;25.10;25.80;;;;;;5091114;28;19924;-68
2022/02/06 12:46:31;;;;;;;;;;;25.10;25.80;;;;;;5090877;28;20128;-68
2022/02/06 12:49:00;;;;;;;;;;;25.10;25.80;;;;;;5091423;28;20076;-69
2022/02/06 12:51:28;;;;;;;;;;;25.10;25.80;;;;;;5090611;28;20367;-68
2022/02/06 12:54:01;;;;;;;;;;;25.10;25.80;;;;;;5091250;28;19928;-68
2022/02/06 12:56:33;;;;;;;;;;;25.10;25.80;;;;;;5091261;28;19924;-68
2022/02/06 12:59:01;;;;;;;;;;;25.20;25.90;;;;;;5073621;28;19967;-68
2022/02/06 13:01:37;;;;;;;;;;;25.10;25.80;;;;;;5090434;28;19974;-68
2022/02/06 13:04:04;;;;;;;;;;;25.20;25.90;;;;;;5090621;28;19958;-68
2022/02/06 13:06:36;;;;;;;;;;;25.20;25.90;;;;;;5090154;28;20155;-67
2022/02/06 13:09:14;;;;;;;;;;;25.20;25.90;;;;;;5091147;28;19974;-68
2022/02/06 13:11:49;;;;;;;;;;;25.20;25.90;;;;;;5089652;28;19924;-68
2022/02/06 13:14:27;;;;;;;;;;;25.20;25.90;;;;;;5091797;28;19924;-68
2022/02/06 13:17:06;;;;;;;;;;;25.10;25.90;;;;;;5089022;28;20206;-68
2022/02/06 13:19:45;;;;;;;;;;;25.20;25.90;;;;;;5092115;28;20285;-68
2022/02/06 13:22:32;;;;;;;;;;;25.10;25.90;;;;;;5088775;28;19924;-68
2022/02/06 13:25:29;;;;;;;;;;;25.20;25.90;;;;;;5092140;28;20366;-68
2022/02/06 13:30:57;;;;;;;;;;;25.10;26.00;;;;;;5091297;28;20026;-68
2022/02/06 13:37:07;;;;;;;;;;;25.10;26.10;;;;;;5089233;28;19963;-69
2022/02/06 13:39:49;;;;;;;;;;;25.00;26.00;;;;;;5091071;28;19924;-68
2022/02/06 13:42:17;;;;;;;;;;;25.00;26.10;;;;;;5088955;28;19971;-68
2022/02/06 13:44:59;;;;;;;;;;;25.00;26.10;;;;;;5091383;28;19969;-68
2022/02/06 13:47:26;;;;;;;;;;;25.00;26.20;;;;;;5088476;28;19924;-68
2022/02/06 13:49:53;;;;;;;;;;;24.90;26.20;;;;;;5090400;28;20304;-68
2022/02/06 13:52:20;;;;;;;;;;;24.90;26.20;;;;;;5088205;28;19924;-68
2022/02/06 13:54:53;;;;;;;;;;;24.90;26.30;;;;;;5091379;28;19978;-68
2022/02/06 13:57:23;;;;;;;;;;;24.90;26.20;;;;;;5088391;28;20104;-68
2022/02/06 13:59:50;;;;;;;;;;;24.90;26.30;;;;;;5090605;28;19977;-68
2022/02/06 14:02:17;;;;;;;;;;;24.90;26.30;;;;;;5087906;28;20022;-68
2022/02/06 14:04:49;;;;;;;;;;;24.90;26.20;;;;;;5090830;28;19971;-68
2022/02/06 14:07:23;;;;;;;;;;;24.90;26.30;;;;;;5088890;28;19928;-68
2022/02/06 14:10:03;;;;;;;;;;;24.80;26.30;;;;;;5090887;28;19950;-68
2022/02/06 14:12:46;;;;;;;;;;;24.80;26.20;;;;;;5087790;28;20175;-68
2022/02/06 14:15:19;;;;;;;;;;;24.80;26.30;;;;;;5090779;28;20013;-68
2022/02/06 14:17:49;;;;;;;;;;;24.80;26.30;;;;;;5088088;28;19969;-68
2022/02/06 14:20:18;;;;;;;;;;;24.80;26.80;;;;;;5072638;28;19924;-68
2022/02/06 14:22:47;;;;;;;;;;;24.70;26.30;;;;;;5088236;28;19928;-68
2022/02/06 14:25:30;;;;;;;;;;;24.70;26.30;;;;;;5090671;28;20156;-68
2022/02/06 14:31:33;;;;;;;;;;;24.70;26.30;;;;;;5088836;28;19919;-68
2022/02/06 14:34:14;;;;;;;;;;;24.70;26.40;;;;;;5089410;28;19936;-68
2022/02/06 14:37:01;;;;;;;;;;;24.70;26.40;;;;;;5088600;28;20026;-68
2022/02/06 14:39:34;;;;;;;;;;;24.70;26.40;;;;;;5090734;28;20019;-68
2022/02/06 14:42:11;;;;;;;;;;;24.70;26.40;;;;;;5087222;28;19932;-68
2022/02/06 14:44:38;;;;;;;;;;;24.70;26.50;;;;;;5090424;28;19943;-68
2022/02/06 14:47:06;;;;;;;;;;;24.70;26.50;;;;;;5087503;28;19977;-68
2022/02/06 14:49:32;;;;;;;;;;;24.70;26.40;;;;;;5090444;28;19985;-68
2022/02/06 14:52:02;;;;;;;;;;;24.60;26.50;;;;;;5086802;28;19924;-68
2022/02/06 14:54:35;;;;;;;;;;;24.70;26.50;;;;;;5090025;28;19924;-68
2022/02/06 14:57:02;;;;;;;;;;;24.70;26.40;;;;;;5086985;28;20023;-69
2022/02/06 14:59:29;;;;;;;;;;;24.70;26.50;;;;;;5088840;28;19956;-68
2022/02/06 15:01:57;;;;;;;;;;;24.60;26.50;;;;;;5087708;28;19927;-68
2022/02/06 15:04:26;;;;;;;;;;;24.60;26.40;;;;;;5089435;28;20068;-68
2022/02/06 15:06:53;;;;;;;;;;;24.60;26.50;;;;;;5087161;28;19932;-67
2022/02/06 15:09:22;;;;;;;;;;;24.60;26.50;;;;;;5071994;28;19924;-68
2022/02/06 15:11:48;;;;;;;;;;;24.50;26.50;;;;;;5086680;28;20022;-68
2022/02/06 15:17:22;;;;;;;;;;;24.50;26.60;;;;;;5086146;28;20504;-68
2022/02/06 15:19:49;;;;;;;;;;;24.40;26.60;;;;;;5089558;28;20365;-68
2022/02/06 15:22:16;;;;;;;;;;;24.40;26.60;;;;;;5068570;28;20405;-68
2022/02/06 15:24:43;;;;;;;;;;;24.30;26.70;;;;;;5088944;28;20326;-68
2022/02/06 15:27:10;;;;;;;;;;;24.30;26.70;;;;;;5068467;28;19951;-68
2022/02/06 15:29:37;;;;;;;;;;;24.30;26.70;;;;;;5089436;28;19924;-68
2022/02/06 15:32:04;;;;;;;;;;;24.20;26.80;;;;;;5086484;28;19954;-68
2022/02/06 15:34:32;;;;;;;;;;;24.20;26.80;;;;;;5089162;28;19928;-68
2022/02/06 15:37:02;;;;;;;;;;;24.10;26.80;;;;;;5085868;28;19924;-68
2022/02/06 15:39:41;;;;;;;;;;;24.10;26.90;;;;;;5089192;28;20537;-68
2022/02/06 15:42:14;;;;;;;;;;;24.10;27.00;;;;;;5086127;28;19989;-68
2022/02/06 15:44:42;;;;;;;;;;;24.00;27.00;;;;;;5089551;28;19973;-68
2022/02/06 15:47:09;;;;;;;;;;;24.00;27.00;;;;;;5085804;28;20246;-68
2022/02/06 15:49:36;;;;;;;;;;;24.00;27.10;;;;;;5089622;28;20411;-68
2022/02/06 15:52:04;;;;;;;;;;;23.90;27.10;;;;;;5067605;28;19924;-68
2022/02/06 15:54:31;;;;;;;;;;;23.90;27.20;;;;;;5088833;28;19985;-68
2022/02/06 15:56:58;;;;;;;;;;;23.90;27.20;;;;;;5086278;28;20130;-68
2022/02/06 15:59:25;;;;;;;;;;;23.80;27.30;;;;;;5088956;28;19969;-68
2022/02/06 16:01:53;;;;;;;;;;;23.80;27.30;;;;;;5085806;28;19924;-68
2022/02/06 16:04:20;;;;;;;;;;;23.80;27.40;;;;;;5088175;28;20388;-68
2022/02/06 16:06:52;;;;;;;;;;;23.70;27.40;;;;;;5086507;28;19924;-68
2022/02/06 16:09:29;;;;;;;;;;;23.70;27.40;;;;;;5089064;28;19931;-68
2022/02/06 16:11:57;;;;;;;;;;;23.70;27.50;;;;;;5084041;28;19924;-68
2022/02/06 16:14:24;;;;;;;;;;;23.60;27.50;;;;;;5088549;28;19967;-68
2022/02/06 16:16:51;;;;;;;;;;;23.60;27.50;;;;;;5085369;28;19977;-68
2022/02/06 16:19:18;;;;;;;;;;;23.60;27.60;;;;;;5088017;28;19928;-68
2022/02/06 16:21:45;;;;;;;;;;;23.60;27.60;;;;;;5086187;28;20145;-68
2022/02/06 16:27:16;;;;;;;;;;;23.50;27.60;;;;;;5085966;28;20286;-68
2022/02/06 16:29:44;;;;;;;;;;;23.50;27.70;;;;;;5088459;28;19967;-68
2022/02/06 16:32:13;;;;;;;;;;;23.50;27.70;;;;;;5086001;28;20263;-68
2022/02/06 16:34:42;;;;;;;;;;;23.40;27.70;;;;;;5088901;28;19964;-68
2022/02/06 16:37:10;;;;;;;;;;;23.40;27.80;;;;;;5086130;28;19959;-68
2022/02/06 16:39:40;;;;;;;;;;;23.40;27.80;;;;;;5088949;28;20023;-68
2022/02/06 16:42:12;;;;;;;;;;;23.40;27.80;;;;;;5084794;28;19977;-68
2022/02/06 16:44:40;;;;;;;;;;;23.30;27.80;;;;;;5088874;28;19949;-68
2022/02/06 16:47:07;;;;;;;;;;;23.30;27.80;;;;;;5085610;28;19977;-68
2022/02/06 16:49:34;;;;;;;;;;;23.30;27.80;;;;;;5088584;28;19975;-68
2022/02/06 16:52:01;;;;;;;;;;;23.30;27.90;;;;;;5085847;28;20376;-68